sensor_id;sensor_type;location;lat;lon;timestamp;P1;durP1;ratioP1;P2;durP2;ratioP2
43817;SDS011;29868;47.360;18.984;2023-08-30T00:02:19;4.63;;;3.08;;
43817;SDS011;29868;47.360;18.984;2023-08-30T00:04:45;6.10;;;3.80;;
43817;SDS011;29868;47.360;18.984;2023-08-30T00:07:10;6.03;;;3.45;;
43817;SDS011;29868;47.360;18.984;2023-08-30T00:09:36;5.45;;;3.15;;
43817;SDS011;29868;47.360;18.984;2023-08-30T00:12:02;5.15;;;3.78;;
43817;SDS011;29868;47.360;18.984;2023-08-30T00:14:28;8.52;;;3.65;;
43817;SDS011;29868;47.360;18.984;2023-08-30T00:16:53;5.03;;;3.55;;
43817;SDS011;29868;47.360;18.984;2023-08-30T00:19:19;5.88;;;3.72;;
43817;SDS011;29868;47.360;18.984;2023-08-30T00:21:44;6.07;;;4.15;;
43817;SDS011;29868;47.360;18.984;2023-08-30T00:24:09;5.15;;;3.60;;
43817;SDS011;29868;47.360;18.984;2023-08-30T00:26:35;8.00;;;4.10;;
43817;SDS011;29868;47.360;18.984;2023-08-30T00:29:00;5.70;;;4.13;;
43817;SDS011;29868;47.360;18.984;2023-08-30T00:31:26;5.75;;;4.38;;
43817;SDS011;29868;47.360;18.984;2023-08-30T00:33:51;5.95;;;4.47;;
43817;SDS011;29868;47.360;18.984;2023-08-30T00:36:17;6.13;;;4.40;;
43817;SDS011;29868;47.360;18.984;2023-08-30T00:38:43;6.25;;;4.63;;
43817;SDS011;29868;47.360;18.984;2023-08-30T00:41:09;6.85;;;4.63;;
43817;SDS011;29868;47.360;18.984;2023-08-30T00:43:34;7.78;;;5.13;;
43817;SDS011;29868;47.360;18.984;2023-08-30T00:46:00;7.78;;;5.25;;
43817;SDS011;29868;47.360;18.984;2023-08-30T00:48:25;7.15;;;5.00;;
43817;SDS011;29868;47.360;18.984;2023-08-30T00:50:51;7.55;;;5.47;;
43817;SDS011;29868;47.360;18.984;2023-08-30T00:53:17;8.05;;;5.95;;
43817;SDS011;29868;47.360;18.984;2023-08-30T00:55:42;7.63;;;5.60;;
43817;SDS011;29868;47.360;18.984;2023-08-30T00:58:08;8.35;;;5.85;;
43817;SDS011;29868;47.360;18.984;2023-08-30T01:00:34;8.98;;;6.30;;
43817;SDS011;29868;47.360;18.984;2023-08-30T01:03:00;10.15;;;7.00;;
43817;SDS011;29868;47.360;18.984;2023-08-30T01:05:26;10.07;;;7.28;;
43817;SDS011;29868;47.360;18.984;2023-08-30T01:07:53;10.80;;;7.93;;
43817;SDS011;29868;47.360;18.984;2023-08-30T01:10:20;12.75;;;7.40;;
43817;SDS011;29868;47.360;18.984;2023-08-30T01:12:53;11.30;;;8.00;;
43817;SDS011;29868;47.360;18.984;2023-08-30T01:15:29;13.43;;;8.68;;
43817;SDS011;29868;47.360;18.984;2023-08-30T01:17:57;11.98;;;9.10;;
43817;SDS011;29868;47.360;18.984;2023-08-30T01:20:24;15.85;;;9.90;;
43817;SDS011;29868;47.360;18.984;2023-08-30T01:25:31;15.57;;;10.52;;
43817;SDS011;29868;47.360;18.984;2023-08-30T01:28:06;14.93;;;10.05;;
43817;SDS011;29868;47.360;18.984;2023-08-30T01:30:34;14.90;;;9.82;;
43817;SDS011;29868;47.360;18.984;2023-08-30T01:33:02;16.00;;;10.60;;
43817;SDS011;29868;47.360;18.984;2023-08-30T01:35:29;14.25;;;10.05;;
43817;SDS011;29868;47.360;18.984;2023-08-30T01:37:58;17.45;;;10.88;;
43817;SDS011;29868;47.360;18.984;2023-08-30T01:40:25;14.60;;;10.02;;
43817;SDS011;29868;47.360;18.984;2023-08-30T01:42:53;17.40;;;10.57;;
43817;SDS011;29868;47.360;18.984;2023-08-30T01:45:20;16.58;;;10.38;;
43817;SDS011;29868;47.360;18.984;2023-08-30T01:47:48;17.52;;;10.07;;
43817;SDS011;29868;47.360;18.984;2023-08-30T01:50:13;16.85;;;10.35;;
43817;SDS011;29868;47.360;18.984;2023-08-30T01:52:41;17.75;;;10.00;;
43817;SDS011;29868;47.360;18.984;2023-08-30T01:55:07;20.85;;;11.10;;
43817;SDS011;29868;47.360;18.984;2023-08-30T01:57:35;20.27;;;10.82;;
43817;SDS011;29868;47.360;18.984;2023-08-30T02:00:00;17.65;;;9.98;;
43817;SDS011;29868;47.360;18.984;2023-08-30T02:02:29;17.40;;;10.27;;
43817;SDS011;29868;47.360;18.984;2023-08-30T02:04:55;19.20;;;10.32;;
43817;SDS011;29868;47.360;18.984;2023-08-30T02:07:22;18.90;;;9.95;;
43817;SDS011;29868;47.360;18.984;2023-08-30T02:09:58;16.73;;;9.50;;
43817;SDS011;29868;47.360;18.984;2023-08-30T02:12:30;18.10;;;10.07;;
43817;SDS011;29868;47.360;18.984;2023-08-30T02:14:59;17.08;;;9.32;;
43817;SDS011;29868;47.360;18.984;2023-08-30T02:17:26;17.25;;;10.48;;
43817;SDS011;29868;47.360;18.984;2023-08-30T02:19:52;17.25;;;9.95;;
43817;SDS011;29868;47.360;18.984;2023-08-30T02:22:18;17.63;;;9.77;;
43817;SDS011;29868;47.360;18.984;2023-08-30T02:24:44;17.77;;;10.18;;
43817;SDS011;29868;47.360;18.984;2023-08-30T02:27:09;18.45;;;9.80;;
43817;SDS011;29868;47.360;18.984;2023-08-30T02:29:35;18.90;;;10.70;;
43817;SDS011;29868;47.360;18.984;2023-08-30T02:32:00;18.55;;;10.50;;
43817;SDS011;29868;47.360;18.984;2023-08-30T02:34:26;19.35;;;10.68;;
43817;SDS011;29868;47.360;18.984;2023-08-30T02:36:51;18.02;;;9.90;;
43817;SDS011;29868;47.360;18.984;2023-08-30T02:39:16;17.13;;;10.32;;
43817;SDS011;29868;47.360;18.984;2023-08-30T02:41:42;18.40;;;10.00;;
43817;SDS011;29868;47.360;18.984;2023-08-30T02:44:08;17.55;;;10.02;;
43817;SDS011;29868;47.360;18.984;2023-08-30T02:46:33;18.90;;;10.57;;
43817;SDS011;29868;47.360;18.984;2023-08-30T02:48:59;19.23;;;10.07;;
43817;SDS011;29868;47.360;18.984;2023-08-30T02:51:24;18.65;;;10.45;;
43817;SDS011;29868;47.360;18.984;2023-08-30T02:53:50;21.00;;;10.50;;
43817;SDS011;29868;47.360;18.984;2023-08-30T02:56:15;17.58;;;10.35;;
43817;SDS011;29868;47.360;18.984;2023-08-30T02:58:41;19.48;;;10.95;;
43817;SDS011;29868;47.360;18.984;2023-08-30T03:01:06;18.90;;;10.43;;
43817;SDS011;29868;47.360;18.984;2023-08-30T03:03:32;19.63;;;11.02;;
43817;SDS011;29868;47.360;18.984;2023-08-30T03:05:57;19.17;;;11.05;;
43817;SDS011;29868;47.360;18.984;2023-08-30T03:08:22;19.92;;;10.88;;
43817;SDS011;29868;47.360;18.984;2023-08-30T03:10:48;19.35;;;11.13;;
43817;SDS011;29868;47.360;18.984;2023-08-30T03:13:13;19.42;;;10.98;;
43817;SDS011;29868;47.360;18.984;2023-08-30T03:15:39;19.52;;;11.35;;
43817;SDS011;29868;47.360;18.984;2023-08-30T03:18:04;18.02;;;11.27;;
43817;SDS011;29868;47.360;18.984;2023-08-30T03:20:29;16.48;;;10.52;;
43817;SDS011;29868;47.360;18.984;2023-08-30T03:22:58;20.33;;;10.75;;
43817;SDS011;29868;47.360;18.984;2023-08-30T03:25:24;18.42;;;10.50;;
43817;SDS011;29868;47.360;18.984;2023-08-30T03:27:49;17.60;;;10.35;;
43817;SDS011;29868;47.360;18.984;2023-08-30T03:30:15;19.40;;;11.13;;
43817;SDS011;29868;47.360;18.984;2023-08-30T03:32:40;16.27;;;9.52;;
43817;SDS011;29868;47.360;18.984;2023-08-30T03:35:06;16.25;;;9.52;;
43817;SDS011;29868;47.360;18.984;2023-08-30T03:37:31;17.65;;;10.27;;
43817;SDS011;29868;47.360;18.984;2023-08-30T03:39:57;17.95;;;10.02;;
43817;SDS011;29868;47.360;18.984;2023-08-30T03:42:22;18.83;;;10.07;;
43817;SDS011;29868;47.360;18.984;2023-08-30T03:44:48;18.63;;;10.27;;
43817;SDS011;29868;47.360;18.984;2023-08-30T03:47:13;18.05;;;9.88;;
43817;SDS011;29868;47.360;18.984;2023-08-30T03:49:38;17.88;;;9.75;;
43817;SDS011;29868;47.360;18.984;2023-08-30T03:52:04;17.83;;;9.38;;
43817;SDS011;29868;47.360;18.984;2023-08-30T03:54:29;17.65;;;9.95;;
43817;SDS011;29868;47.360;18.984;2023-08-30T03:56:55;19.38;;;10.35;;
43817;SDS011;29868;47.360;18.984;2023-08-30T03:59:20;17.75;;;10.13;;
43817;SDS011;29868;47.360;18.984;2023-08-30T04:01:47;19.27;;;10.85;;
43817;SDS011;29868;47.360;18.984;2023-08-30T04:04:13;18.60;;;9.82;;
43817;SDS011;29868;47.360;18.984;2023-08-30T04:06:39;15.48;;;9.18;;
43817;SDS011;29868;47.360;18.984;2023-08-30T04:09:05;16.15;;;8.93;;
43817;SDS011;29868;47.360;18.984;2023-08-30T04:11:30;18.10;;;9.70;;
43817;SDS011;29868;47.360;18.984;2023-08-30T04:13:56;15.95;;;9.65;;
43817;SDS011;29868;47.360;18.984;2023-08-30T04:16:21;16.15;;;9.15;;
43817;SDS011;29868;47.360;18.984;2023-08-30T04:18:46;16.15;;;9.75;;
43817;SDS011;29868;47.360;18.984;2023-08-30T04:21:12;16.00;;;9.40;;
43817;SDS011;29868;47.360;18.984;2023-08-30T04:23:37;16.02;;;8.68;;
43817;SDS011;29868;47.360;18.984;2023-08-30T04:26:03;15.05;;;8.57;;
43817;SDS011;29868;47.360;18.984;2023-08-30T04:28:28;14.73;;;8.05;;
43817;SDS011;29868;47.360;18.984;2023-08-30T04:30:54;15.77;;;8.70;;
43817;SDS011;29868;47.360;18.984;2023-08-30T04:33:20;17.23;;;8.75;;
43817;SDS011;29868;47.360;18.984;2023-08-30T04:35:49;13.68;;;7.82;;
43817;SDS011;29868;47.360;18.984;2023-08-30T04:38:19;14.25;;;8.68;;
43817;SDS011;29868;47.360;18.984;2023-08-30T04:40:45;14.77;;;8.23;;
43817;SDS011;29868;47.360;18.984;2023-08-30T04:43:10;15.75;;;7.90;;
43817;SDS011;29868;47.360;18.984;2023-08-30T04:45:36;13.55;;;8.55;;
43817;SDS011;29868;47.360;18.984;2023-08-30T04:48:01;14.57;;;8.10;;
43817;SDS011;29868;47.360;18.984;2023-08-30T04:50:27;14.32;;;8.13;;
43817;SDS011;29868;47.360;18.984;2023-08-30T04:52:52;13.68;;;7.78;;
43817;SDS011;29868;47.360;18.984;2023-08-30T04:55:18;14.57;;;7.75;;
43817;SDS011;29868;47.360;18.984;2023-08-30T04:57:43;13.32;;;7.88;;
43817;SDS011;29868;47.360;18.984;2023-08-30T05:00:13;12.77;;;7.78;;
43817;SDS011;29868;47.360;18.984;2023-08-30T05:02:39;13.55;;;7.22;;
43817;SDS011;29868;47.360;18.984;2023-08-30T05:05:05;13.82;;;7.82;;
43817;SDS011;29868;47.360;18.984;2023-08-30T05:07:31;14.55;;;7.43;;
43817;SDS011;29868;47.360;18.984;2023-08-30T05:09:56;13.23;;;7.65;;
43817;SDS011;29868;47.360;18.984;2023-08-30T05:12:22;12.25;;;7.22;;
43817;SDS011;29868;47.360;18.984;2023-08-30T05:14:47;12.68;;;7.55;;
43817;SDS011;29868;47.360;18.984;2023-08-30T05:17:13;12.77;;;7.10;;
43817;SDS011;29868;47.360;18.984;2023-08-30T05:19:38;12.75;;;7.18;;
43817;SDS011;29868;47.360;18.984;2023-08-30T05:22:03;12.32;;;7.75;;
43817;SDS011;29868;47.360;18.984;2023-08-30T05:24:29;14.20;;;7.93;;
43817;SDS011;29868;47.360;18.984;2023-08-30T05:26:54;11.35;;;7.50;;
43817;SDS011;29868;47.360;18.984;2023-08-30T05:29:20;11.63;;;7.63;;
43817;SDS011;29868;47.360;18.984;2023-08-30T05:31:45;12.90;;;7.35;;
43817;SDS011;29868;47.360;18.984;2023-08-30T05:34:10;12.75;;;7.45;;
43817;SDS011;29868;47.360;18.984;2023-08-30T05:36:36;12.88;;;8.07;;
43817;SDS011;29868;47.360;18.984;2023-08-30T05:39:02;13.27;;;7.28;;
43817;SDS011;29868;47.360;18.984;2023-08-30T05:41:28;13.13;;;7.85;;
43817;SDS011;29868;47.360;18.984;2023-08-30T05:43:54;11.45;;;7.45;;
43817;SDS011;29868;47.360;18.984;2023-08-30T05:46:19;12.02;;;7.47;;
43817;SDS011;29868;47.360;18.984;2023-08-30T05:48:45;12.05;;;7.53;;
43817;SDS011;29868;47.360;18.984;2023-08-30T05:51:10;11.48;;;7.05;;
43817;SDS011;29868;47.360;18.984;2023-08-30T05:53:35;10.65;;;6.40;;
43817;SDS011;29868;47.360;18.984;2023-08-30T05:56:01;10.60;;;6.47;;
43817;SDS011;29868;47.360;18.984;2023-08-30T05:58:27;9.57;;;6.40;;
43817;SDS011;29868;47.360;18.984;2023-08-30T06:00:53;10.57;;;6.47;;
43817;SDS011;29868;47.360;18.984;2023-08-30T06:03:18;9.38;;;6.03;;
43817;SDS011;29868;47.360;18.984;2023-08-30T06:05:44;10.75;;;7.03;;
43817;SDS011;29868;47.360;18.984;2023-08-30T06:08:09;11.07;;;7.00;;
43817;SDS011;29868;47.360;18.984;2023-08-30T06:10:35;9.10;;;6.18;;
43817;SDS011;29868;47.360;18.984;2023-08-30T06:13:01;10.55;;;6.50;;
43817;SDS011;29868;47.360;18.984;2023-08-30T06:15:27;10.82;;;7.13;;
43817;SDS011;29868;47.360;18.984;2023-08-30T06:17:53;10.52;;;7.28;;
43817;SDS011;29868;47.360;18.984;2023-08-30T06:20:19;10.98;;;7.10;;
43817;SDS011;29868;47.360;18.984;2023-08-30T06:22:44;12.25;;;7.30;;
43817;SDS011;29868;47.360;18.984;2023-08-30T06:25:09;12.10;;;6.97;;
43817;SDS011;29868;47.360;18.984;2023-08-30T06:27:40;10.18;;;6.97;;
43817;SDS011;29868;47.360;18.984;2023-08-30T06:30:08;9.82;;;6.72;;
43817;SDS011;29868;47.360;18.984;2023-08-30T06:32:34;10.32;;;6.70;;
43817;SDS011;29868;47.360;18.984;2023-08-30T06:35:00;11.85;;;7.30;;
43817;SDS011;29868;47.360;18.984;2023-08-30T06:37:26;9.80;;;6.65;;
43817;SDS011;29868;47.360;18.984;2023-08-30T06:39:51;9.23;;;6.63;;
43817;SDS011;29868;47.360;18.984;2023-08-30T06:42:16;10.27;;;6.97;;
43817;SDS011;29868;47.360;18.984;2023-08-30T06:44:42;9.20;;;6.22;;
43817;SDS011;29868;47.360;18.984;2023-08-30T06:47:07;9.80;;;6.72;;
43817;SDS011;29868;47.360;18.984;2023-08-30T06:49:33;9.40;;;6.25;;
43817;SDS011;29868;47.360;18.984;2023-08-30T06:51:59;8.95;;;6.22;;
43817;SDS011;29868;47.360;18.984;2023-08-30T06:54:28;10.15;;;6.53;;
43817;SDS011;29868;47.360;18.984;2023-08-30T06:56:58;9.30;;;6.65;;
43817;SDS011;29868;47.360;18.984;2023-08-30T06:59:25;10.75;;;7.40;;
43817;SDS011;29868;47.360;18.984;2023-08-30T07:01:51;10.05;;;6.43;;
43817;SDS011;29868;47.360;18.984;2023-08-30T07:04:17;9.13;;;6.35;;
43817;SDS011;29868;47.360;18.984;2023-08-30T07:06:43;9.13;;;6.30;;
43817;SDS011;29868;47.360;18.984;2023-08-30T07:09:08;8.93;;;6.15;;
43817;SDS011;29868;47.360;18.984;2023-08-30T07:11:34;9.00;;;6.00;;
43817;SDS011;29868;47.360;18.984;2023-08-30T07:13:59;8.73;;;6.45;;
43817;SDS011;29868;47.360;18.984;2023-08-30T07:16:25;8.77;;;5.93;;
43817;SDS011;29868;47.360;18.984;2023-08-30T07:18:50;10.63;;;6.78;;
43817;SDS011;29868;47.360;18.984;2023-08-30T07:21:16;10.27;;;7.03;;
43817;SDS011;29868;47.360;18.984;2023-08-30T07:23:41;10.77;;;7.13;;
43817;SDS011;29868;47.360;18.984;2023-08-30T07:26:06;9.65;;;6.50;;
43817;SDS011;29868;47.360;18.984;2023-08-30T07:28:32;9.80;;;6.82;;
43817;SDS011;29868;47.360;18.984;2023-08-30T07:31:04;11.68;;;6.85;;
43817;SDS011;29868;47.360;18.984;2023-08-30T07:33:29;9.50;;;6.65;;
43817;SDS011;29868;47.360;18.984;2023-08-30T07:35:55;9.55;;;6.65;;
43817;SDS011;29868;47.360;18.984;2023-08-30T07:38:20;10.48;;;6.78;;
43817;SDS011;29868;47.360;18.984;2023-08-30T07:40:46;10.82;;;6.85;;
43817;SDS011;29868;47.360;18.984;2023-08-30T07:43:11;10.18;;;7.10;;
43817;SDS011;29868;47.360;18.984;2023-08-30T07:45:36;13.00;;;6.75;;
43817;SDS011;29868;47.360;18.984;2023-08-30T07:48:02;10.55;;;6.88;;
43817;SDS011;29868;47.360;18.984;2023-08-30T07:50:28;9.60;;;6.35;;
43817;SDS011;29868;47.360;18.984;2023-08-30T07:52:53;10.15;;;6.88;;
43817;SDS011;29868;47.360;18.984;2023-08-30T07:55:18;11.30;;;6.93;;
43817;SDS011;29868;47.360;18.984;2023-08-30T07:57:44;11.18;;;7.13;;
43817;SDS011;29868;47.360;18.984;2023-08-30T08:00:09;11.55;;;7.35;;
43817;SDS011;29868;47.360;18.984;2023-08-30T08:02:35;11.23;;;6.47;;
43817;SDS011;29868;47.360;18.984;2023-08-30T08:05:01;10.20;;;6.75;;
43817;SDS011;29868;47.360;18.984;2023-08-30T08:07:27;9.45;;;6.20;;
43817;SDS011;29868;47.360;18.984;2023-08-30T08:09:52;10.50;;;7.05;;
43817;SDS011;29868;47.360;18.984;2023-08-30T08:12:18;10.18;;;6.63;;
43817;SDS011;29868;47.360;18.984;2023-08-30T08:14:43;8.52;;;5.93;;
43817;SDS011;29868;47.360;18.984;2023-08-30T08:17:08;12.00;;;6.03;;
43817;SDS011;29868;47.360;18.984;2023-08-30T08:19:34;9.90;;;5.97;;
43817;SDS011;29868;47.360;18.984;2023-08-30T08:22:03;9.73;;;6.05;;
43817;SDS011;29868;47.360;18.984;2023-08-30T08:24:29;10.40;;;5.97;;
43817;SDS011;29868;47.360;18.984;2023-08-30T08:26:54;8.88;;;5.90;;
43817;SDS011;29868;47.360;18.984;2023-08-30T08:29:20;9.45;;;5.78;;
43817;SDS011;29868;47.360;18.984;2023-08-30T08:31:45;9.30;;;5.57;;
43817;SDS011;29868;47.360;18.984;2023-08-30T08:34:11;10.13;;;6.10;;
43817;SDS011;29868;47.360;18.984;2023-08-30T08:36:38;11.45;;;6.80;;
43817;SDS011;29868;47.360;18.984;2023-08-30T08:39:05;9.07;;;5.68;;
43817;SDS011;29868;47.360;18.984;2023-08-30T08:41:35;9.55;;;5.80;;
43817;SDS011;29868;47.360;18.984;2023-08-30T08:44:04;11.15;;;6.00;;
43817;SDS011;29868;47.360;18.984;2023-08-30T08:46:31;10.52;;;6.18;;
43817;SDS011;29868;47.360;18.984;2023-08-30T08:48:57;9.27;;;6.03;;
43817;SDS011;29868;47.360;18.984;2023-08-30T08:51:26;8.65;;;5.93;;
43817;SDS011;29868;47.360;18.984;2023-08-30T08:53:54;9.85;;;6.45;;
43817;SDS011;29868;47.360;18.984;2023-08-30T08:56:25;9.93;;;6.10;;
43817;SDS011;29868;47.360;18.984;2023-08-30T08:58:50;9.13;;;5.85;;
43817;SDS011;29868;47.360;18.984;2023-08-30T09:01:15;9.13;;;5.90;;
43817;SDS011;29868;47.360;18.984;2023-08-30T09:03:41;10.68;;;6.25;;
43817;SDS011;29868;47.360;18.984;2023-08-30T09:06:07;8.32;;;6.10;;
43817;SDS011;29868;47.360;18.984;2023-08-30T09:08:32;9.65;;;6.45;;
43817;SDS011;29868;47.360;18.984;2023-08-30T09:10:58;8.73;;;6.38;;
43817;SDS011;29868;47.360;18.984;2023-08-30T09:13:24;8.55;;;6.00;;
43817;SDS011;29868;47.360;18.984;2023-08-30T09:15:49;8.38;;;6.10;;
43817;SDS011;29868;47.360;18.984;2023-08-30T09:18:15;7.63;;;5.45;;
43817;SDS011;29868;47.360;18.984;2023-08-30T09:20:41;8.02;;;5.32;;
43817;SDS011;29868;47.360;18.984;2023-08-30T09:23:15;8.38;;;5.43;;
43817;SDS011;29868;47.360;18.984;2023-08-30T09:25:55;8.70;;;5.35;;
43817;SDS011;29868;47.360;18.984;2023-08-30T09:28:21;7.55;;;5.68;;
43817;SDS011;29868;47.360;18.984;2023-08-30T09:30:50;6.75;;;5.10;;
43817;SDS011;29868;47.360;18.984;2023-08-30T09:33:19;8.10;;;5.40;;
43817;SDS011;29868;47.360;18.984;2023-08-30T09:35:46;7.68;;;4.82;;
43817;SDS011;29868;47.360;18.984;2023-08-30T09:38:18;9.55;;;5.15;;
43817;SDS011;29868;47.360;18.984;2023-08-30T09:40:44;6.32;;;4.82;;
43817;SDS011;29868;47.360;18.984;2023-08-30T09:43:11;6.70;;;4.95;;
43817;SDS011;29868;47.360;18.984;2023-08-30T09:45:37;6.40;;;4.68;;
43817;SDS011;29868;47.360;18.984;2023-08-30T09:48:03;6.50;;;4.63;;
43817;SDS011;29868;47.360;18.984;2023-08-30T09:50:32;6.65;;;5.00;;
43817;SDS011;29868;47.360;18.984;2023-08-30T09:53:00;6.15;;;4.40;;
43817;SDS011;29868;47.360;18.984;2023-08-30T09:55:34;7.22;;;4.30;;
43817;SDS011;29868;47.360;18.984;2023-08-30T09:58:01;7.50;;;4.03;;
43817;SDS011;29868;47.360;18.984;2023-08-30T10:00:29;6.80;;;4.28;;
43817;SDS011;29868;47.360;18.984;2023-08-30T10:02:55;5.15;;;3.88;;
43817;SDS011;29868;47.360;18.984;2023-08-30T10:05:23;6.03;;;4.07;;
43817;SDS011;29868;47.360;18.984;2023-08-30T10:07:49;5.38;;;4.10;;
43817;SDS011;29868;47.360;18.984;2023-08-30T10:10:17;5.05;;;3.80;;
43817;SDS011;29868;47.360;18.984;2023-08-30T10:12:43;5.38;;;3.85;;
43817;SDS011;29868;47.360;18.984;2023-08-30T10:15:11;6.63;;;4.20;;
43817;SDS011;29868;47.360;18.984;2023-08-30T10:17:37;5.40;;;3.75;;
43817;SDS011;29868;47.360;18.984;2023-08-30T10:20:08;4.93;;;3.50;;
43817;SDS011;29868;47.360;18.984;2023-08-30T10:22:35;6.80;;;3.65;;
43817;SDS011;29868;47.360;18.984;2023-08-30T10:25:11;5.85;;;3.95;;
43817;SDS011;29868;47.360;18.984;2023-08-30T10:27:43;5.68;;;3.92;;
43817;SDS011;29868;47.360;18.984;2023-08-30T10:30:11;7.82;;;4.30;;
43817;SDS011;29868;47.360;18.984;2023-08-30T10:32:42;5.65;;;4.00;;
43817;SDS011;29868;47.360;18.984;2023-08-30T10:35:11;4.82;;;3.47;;
43817;SDS011;29868;47.360;18.984;2023-08-30T10:37:38;6.65;;;3.80;;
43817;SDS011;29868;47.360;18.984;2023-08-30T10:40:04;5.55;;;3.80;;
43817;SDS011;29868;47.360;18.984;2023-08-30T10:42:31;5.38;;;3.70;;
43817;SDS011;29868;47.360;18.984;2023-08-30T10:45:06;7.45;;;4.25;;
43817;SDS011;29868;47.360;18.984;2023-08-30T10:47:36;5.93;;;3.97;;
43817;SDS011;29868;47.360;18.984;2023-08-30T10:50:06;5.00;;;3.70;;
43817;SDS011;29868;47.360;18.984;2023-08-30T10:52:33;6.30;;;4.20;;
43817;SDS011;29868;47.360;18.984;2023-08-30T10:55:14;6.00;;;3.70;;
43817;SDS011;29868;47.360;18.984;2023-08-30T10:57:44;6.30;;;4.20;;
43817;SDS011;29868;47.360;18.984;2023-08-30T11:05:17;6.32;;;3.90;;
43817;SDS011;29868;47.360;18.984;2023-08-30T11:07:45;5.20;;;3.70;;
43817;SDS011;29868;47.360;18.984;2023-08-30T11:10:12;5.45;;;3.53;;
43817;SDS011;29868;47.360;18.984;2023-08-30T11:12:39;4.93;;;3.38;;
43817;SDS011;29868;47.360;18.984;2023-08-30T11:15:09;4.35;;;3.15;;
43817;SDS011;29868;47.360;18.984;2023-08-30T11:17:35;5.00;;;3.00;;
43817;SDS011;29868;47.360;18.984;2023-08-30T11:22:37;5.95;;;2.80;;
43817;SDS011;29868;47.360;18.984;2023-08-30T11:25:04;3.75;;;2.60;;
43817;SDS011;29868;47.360;18.984;2023-08-30T11:27:30;3.70;;;2.50;;
43817;SDS011;29868;47.360;18.984;2023-08-30T11:29:59;4.50;;;2.70;;
43817;SDS011;29868;47.360;18.984;2023-08-30T11:32:36;3.92;;;2.30;;
43817;SDS011;29868;47.360;18.984;2023-08-30T11:35:03;3.28;;;2.30;;
43817;SDS011;29868;47.360;18.984;2023-08-30T11:37:30;4.00;;;2.17;;
43817;SDS011;29868;47.360;18.984;2023-08-30T11:39:55;4.32;;;2.20;;
43817;SDS011;29868;47.360;18.984;2023-08-30T11:42:21;2.83;;;2.20;;
43817;SDS011;29868;47.360;18.984;2023-08-30T11:44:47;3.67;;;2.30;;
43817;SDS011;29868;47.360;18.984;2023-08-30T11:47:23;3.47;;;2.30;;
43817;SDS011;29868;47.360;18.984;2023-08-30T11:49:49;3.20;;;2.10;;
43817;SDS011;29868;47.360;18.984;2023-08-30T11:52:17;4.05;;;2.20;;
43817;SDS011;29868;47.360;18.984;2023-08-30T11:54:43;3.47;;;2.20;;
43817;SDS011;29868;47.360;18.984;2023-08-30T11:57:09;3.65;;;2.25;;
43817;SDS011;29868;47.360;18.984;2023-08-30T11:59:35;3.42;;;2.00;;
43817;SDS011;29868;47.360;18.984;2023-08-30T12:02:01;3.33;;;2.30;;
43817;SDS011;29868;47.360;18.984;2023-08-30T12:04:27;3.50;;;2.28;;
43817;SDS011;29868;47.360;18.984;2023-08-30T12:06:53;4.40;;;2.15;;
43817;SDS011;29868;47.360;18.984;2023-08-30T12:09:18;3.95;;;2.05;;
43817;SDS011;29868;47.360;18.984;2023-08-30T12:11:47;2.90;;;2.10;;
43817;SDS011;29868;47.360;18.984;2023-08-30T12:14:13;3.42;;;2.00;;
43817;SDS011;29868;47.360;18.984;2023-08-30T12:16:39;2.58;;;1.90;;
43817;SDS011;29868;47.360;18.984;2023-08-30T12:19:09;3.38;;;2.28;;
43817;SDS011;29868;47.360;18.984;2023-08-30T12:21:41;3.05;;;1.90;;
43817;SDS011;29868;47.360;18.984;2023-08-30T12:24:07;4.28;;;2.33;;
43817;SDS011;29868;47.360;18.984;2023-08-30T12:26:33;4.22;;;2.25;;
43817;SDS011;29868;47.360;18.984;2023-08-30T12:28:58;4.03;;;2.10;;
43817;SDS011;29868;47.360;18.984;2023-08-30T12:31:24;2.90;;;1.92;;
43817;SDS011;29868;47.360;18.984;2023-08-30T12:33:49;4.65;;;2.10;;
43817;SDS011;29868;47.360;18.984;2023-08-30T12:36:15;4.38;;;2.45;;
43817;SDS011;29868;47.360;18.984;2023-08-30T12:38:40;5.05;;;2.63;;
43817;SDS011;29868;47.360;18.984;2023-08-30T12:41:05;3.63;;;2.22;;
43817;SDS011;29868;47.360;18.984;2023-08-30T12:43:31;3.95;;;2.55;;
43817;SDS011;29868;47.360;18.984;2023-08-30T12:45:56;3.58;;;2.42;;
43817;SDS011;29868;47.360;18.984;2023-08-30T12:48:22;4.30;;;2.38;;
43817;SDS011;29868;47.360;18.984;2023-08-30T12:50:48;4.25;;;2.38;;
43817;SDS011;29868;47.360;18.984;2023-08-30T12:53:13;3.13;;;2.20;;
43817;SDS011;29868;47.360;18.984;2023-08-30T12:55:43;4.78;;;2.10;;
43817;SDS011;29868;47.360;18.984;2023-08-30T12:58:09;4.60;;;2.40;;
43817;SDS011;29868;47.360;18.984;2023-08-30T13:00:35;3.85;;;2.30;;
43817;SDS011;29868;47.360;18.984;2023-08-30T13:03:00;3.63;;;2.00;;
43817;SDS011;29868;47.360;18.984;2023-08-30T13:05:28;4.88;;;2.70;;
43817;SDS011;29868;47.360;18.984;2023-08-30T13:07:55;4.65;;;2.50;;
43817;SDS011;29868;47.360;18.984;2023-08-30T13:10:21;3.75;;;2.20;;
43817;SDS011;29868;47.360;18.984;2023-08-30T13:12:46;4.20;;;2.58;;
43817;SDS011;29868;47.360;18.984;2023-08-30T13:15:12;3.78;;;2.40;;
43817;SDS011;29868;47.360;18.984;2023-08-30T13:17:37;3.67;;;2.50;;
43817;SDS011;29868;47.360;18.984;2023-08-30T13:20:03;3.78;;;2.20;;
43817;SDS011;29868;47.360;18.984;2023-08-30T13:22:28;4.53;;;2.65;;
43817;SDS011;29868;47.360;18.984;2023-08-30T13:24:54;5.20;;;2.38;;
43817;SDS011;29868;47.360;18.984;2023-08-30T13:27:20;3.90;;;2.78;;
43817;SDS011;29868;47.360;18.984;2023-08-30T13:29:45;4.50;;;2.50;;
43817;SDS011;29868;47.360;18.984;2023-08-30T13:32:11;4.28;;;2.30;;
43817;SDS011;29868;47.360;18.984;2023-08-30T13:34:37;3.45;;;2.10;;
43817;SDS011;29868;47.360;18.984;2023-08-30T13:37:03;3.85;;;2.45;;
43817;SDS011;29868;47.360;18.984;2023-08-30T13:39:29;3.30;;;2.13;;
43817;SDS011;29868;47.360;18.984;2023-08-30T13:41:54;3.85;;;2.25;;
43817;SDS011;29868;47.360;18.984;2023-08-30T13:44:20;2.80;;;2.00;;
43817;SDS011;29868;47.360;18.984;2023-08-30T13:46:45;3.38;;;2.25;;
43817;SDS011;29868;47.360;18.984;2023-08-30T13:49:13;4.03;;;2.17;;
43817;SDS011;29868;47.360;18.984;2023-08-30T13:51:39;4.05;;;2.00;;
43817;SDS011;29868;47.360;18.984;2023-08-30T13:54:05;3.90;;;2.30;;
43817;SDS011;29868;47.360;18.984;2023-08-30T13:56:30;4.05;;;2.13;;
43817;SDS011;29868;47.360;18.984;2023-08-30T13:58:57;3.75;;;2.05;;
43817;SDS011;29868;47.360;18.984;2023-08-30T14:01:22;4.25;;;2.33;;
43817;SDS011;29868;47.360;18.984;2023-08-30T14:03:48;3.08;;;2.15;;
43817;SDS011;29868;47.360;18.984;2023-08-30T14:06:13;3.35;;;2.20;;
43817;SDS011;29868;47.360;18.984;2023-08-30T14:08:38;3.60;;;2.03;;
43817;SDS011;29868;47.360;18.984;2023-08-30T14:11:04;3.22;;;2.25;;
43817;SDS011;29868;47.360;18.984;2023-08-30T14:13:29;3.97;;;2.17;;
43817;SDS011;29868;47.360;18.984;2023-08-30T14:16:01;3.50;;;2.13;;
43817;SDS011;29868;47.360;18.984;2023-08-30T14:18:30;4.13;;;2.00;;
43817;SDS011;29868;47.360;18.984;2023-08-30T14:20:56;2.83;;;1.83;;
43817;SDS011;29868;47.360;18.984;2023-08-30T14:23:26;2.17;;;1.63;;
43817;SDS011;29868;47.360;18.984;2023-08-30T14:25:56;4.40;;;2.03;;
43817;SDS011;29868;47.360;18.984;2023-08-30T14:28:22;3.13;;;2.00;;
43817;SDS011;29868;47.360;18.984;2023-08-30T14:30:47;4.38;;;2.00;;
43817;SDS011;29868;47.360;18.984;2023-08-30T14:33:13;3.83;;;1.75;;